Rowlett, Texas
Current Conditions -  °F | °C
As of 4:55 AM on Wednesday 22 Oct 2014 (Local Time) from KF46 Reporting Station
Clear Clear  
Wind Chill: 62°   Ceiling: Unl
Heat Index: 62°   Visibility: 10mi
Dew Point: 60°   Wind: 0mph
Humidity: 94%   Direction: NA
Pressure: 30.08"   Gusts: NA
Location:  32.9°N, 96.57°W
Report Text: KF46 220955Z AUTO 00000KT 10SM CLR 17/16 A3008 RMK AO2 T01650155
Loading
Personal Weather Stations






























Interactive Weather Map
Tropical Storm Tracking
New forecast layout! Learn more

10-Day Weather Forecast

Advertisements
Track Severe Weather on mobile